YMEN METAR and TAF | Updated Today

YMEN METAR

Melbourne Essendon Airport

Observation time: 8:57 hr. ago

YMEN 061230Z AUTO 33009KT 2000 +RA SCT009 BKN024 BKN043 16/16 Q1012

Need help? Read our tutorial on how to read METARs or read the parsed version below.

Melbourne Essendon Airport (YMEN) METAR

  • Weather conditions on Thu, 06 Oct 2022 12:30:00 +0000 (8:57 hr. ago):
  • Present conditions: Strong rain
  • Clouds: Scattered at 274 meters; broken sky at 732 meters; broken sky at 1311 meters
  • Visibility: 2000 meters
  • Wind: 330 degrees at 9 knots
  • Temperature: 16 celsius
  • Dew point: 16 celsius
  • Pressure: 1012 millibars
  • Remarks: None


Useful to know...